Time;durP1;ratioP1;P1;durP2;ratioP2;P2;SDS_P1;SDS_P2;PMS_P1;PMS_P2;Temp;Humidity;BMP_temperature;BMP_pressure;BME280_temperature;BME280_humidity;BME280_pressure;Samples;Min_cycle;Max_cycle;Signal;HPM_P1;HPM_P2
2022/08/02 00:00:33;;;;;;;5.17;3.70;;;19.20;99.90;;;;;;6071532;23;20445;-80
2022/08/02 00:03:00;;;;;;;4.00;3.60;;;19.20;99.90;;;;;;6071993;23;20372;-81
2022/08/02 00:05:27;;;;;;;4.00;3.37;;;19.20;99.90;;;;;;6071970;23;20710;-79
2022/08/02 00:07:54;;;;;;;4.27;3.97;;;19.30;99.90;;;;;;6047162;23;20648;-79
2022/08/02 00:10:21;;;;;;;4.30;3.87;;;19.30;99.90;;;;;;6070967;23;20410;-79
2022/08/02 00:12:48;;;;;;;3.10;2.90;;;19.20;99.90;;;;;;6071386;23;20375;-80
2022/08/02 00:15:15;;;;;;;3.90;3.60;;;19.10;99.90;;;;;;6072051;23;20482;-80
2022/08/02 00:17:43;;;;;;;3.57;3.27;;;19.10;99.90;;;;;;6071057;23;20406;-79
2022/08/02 00:20:12;;;;;;;4.50;4.10;;;19.00;99.90;;;;;;6071260;23;20452;-80
2022/08/02 00:22:39;;;;;;;3.43;3.13;;;19.10;99.90;;;;;;6070546;23;20364;-81
2022/08/02 00:25:07;;;;;;;3.13;2.93;;;19.00;99.90;;;;;;6046392;23;20454;-81
2022/08/02 00:27:34;;;;;;;3.90;3.60;;;19.00;99.90;;;;;;6046674;23;20445;-81
2022/08/02 00:30:01;;;;;;;3.93;3.53;;;19.00;99.90;;;;;;6072243;23;20405;-79
2022/08/02 00:32:31;;;;;;;3.37;3.17;;;18.90;99.90;;;;;;6075071;23;20616;-80
2022/08/02 00:34:58;;;;;;;3.37;3.10;;;18.90;99.90;;;;;;6075284;23;20496;-80
2022/08/02 00:37:25;;;;;;;3.83;3.53;;;18.90;99.90;;;;;;6072796;23;20471;-79
2022/08/02 00:39:52;;;;;;;3.93;3.63;;;18.90;99.90;;;;;;6071932;23;20476;-80
2022/08/02 00:42:19;;;;;;;4.27;3.97;;;18.90;99.90;;;;;;6074005;23;20848;-82
2022/08/02 00:44:48;;;;;;;3.97;3.57;;;18.80;99.90;;;;;;6074767;23;20400;-82
2022/08/02 00:47:23;;;;;;;4.63;3.63;;;18.80;99.90;;;;;;6049818;23;20375;-80
2022/08/02 00:49:50;;;;;;;3.97;3.57;;;18.90;99.90;;;;;;6073700;23;20372;-81
2022/08/02 00:52:16;;;;;;;4.70;4.30;;;18.80;99.90;;;;;;6050160;23;20501;-81
2022/08/02 00:54:44;;;;;;;4.30;3.90;;;18.90;99.90;;;;;;6059704;23;20475;-80
2022/08/02 00:57:11;;;;;;;3.37;3.10;;;18.90;99.90;;;;;;6087182;23;20654;-80
2022/08/02 00:59:38;;;;;;;3.90;3.60;;;18.90;99.90;;;;;;6083800;23;20471;-82
2022/08/02 01:02:05;;;;;;;4.27;3.90;;;18.70;99.90;;;;;;6071853;23;20378;-81
2022/08/02 01:04:32;;;;;;;3.83;3.50;;;18.70;99.90;;;;;;6073128;23;20439;-81
2022/08/02 01:07:02;;;;;;;4.00;3.70;;;18.70;99.90;;;;;;6072676;23;20481;-82
2022/08/02 01:09:40;;;;;;;4.27;3.87;;;18.70;99.90;;;;;;6072516;23;20360;-81
2022/08/02 01:12:07;;;;;;;4.57;4.17;;;18.60;99.90;;;;;;6073386;23;20539;-81
2022/08/02 01:14:36;;;;;;;4.30;3.90;;;18.50;99.90;;;;;;6074635;23;20401;-81
2022/08/02 01:17:14;;;;;;;3.40;3.10;;;18.70;99.90;;;;;;6074664;23;20372;-80
2022/08/02 01:20:01;;;;;;;4.40;4.00;;;18.70;99.90;;;;;;6075224;23;20453;-81
2022/08/02 01:23:01;;;;;;;4.33;3.93;;;18.70;99.90;;;;;;6076025;23;20440;-80
2022/08/02 01:26:04;;;;;;;3.90;3.60;;;18.80;99.90;;;;;;6074743;23;20389;-81
2022/08/02 01:28:52;;;;;;;3.93;3.53;;;18.70;99.90;;;;;;6076163;23;20429;-83
2022/08/02 01:31:31;;;;;;;4.53;4.20;;;18.80;99.90;;;;;;6079520;23;20692;-81
2022/08/02 01:34:17;;;;;;;3.83;3.43;;;18.70;99.90;;;;;;6075406;23;20439;-80
2022/08/02 01:36:50;;;;;;;5.00;4.60;;;18.70;99.90;;;;;;6072438;23;20392;-80
2022/08/02 01:39:22;;;;;;;4.63;3.57;;;18.70;99.90;;;;;;6071080;23;20432;-81
2022/08/02 01:42:00;;;;;;;3.10;2.90;;;18.60;99.90;;;;;;6071838;23;20393;-82
2022/08/02 01:44:32;;;;;;;3.90;3.60;;;18.50;99.90;;;;;;6071230;23;20495;-81
2022/08/02 01:47:08;;;;;;;4.37;3.97;;;18.50;99.90;;;;;;6072495;23;21007;-82
2022/08/02 01:49:37;;;;;;;4.97;3.90;;;18.40;99.90;;;;;;6071194;23;20428;-82
2022/08/02 01:52:21;;;;;;;4.77;4.33;;;18.30;99.90;;;;;;6071901;23;20413;-81
2022/08/02 01:55:01;;;;;;;3.97;3.67;;;18.30;99.90;;;;;;6073246;23;20502;-82
2022/08/02 01:57:49;;;;;;;4.50;3.20;;;18.20;99.90;;;;;;6076937;23;20411;-80
2022/08/02 02:00:19;;;;;;;3.50;3.20;;;18.10;99.90;;;;;;6077545;23;20491;-81
2022/08/02 02:02:48;;;;;;;5.20;3.70;;;18.00;99.90;;;;;;6076585;23;20455;-80
2022/08/02 02:05:19;;;;;;;6.77;4.17;;;17.90;99.90;;;;;;6088652;23;20400;-80
2022/08/02 02:07:55;;;;;;;3.77;3.47;;;17.90;99.90;;;;;;6088607;23;20451;-82
2022/08/02 02:10:33;;;;;;;4.10;3.80;;;17.90;99.90;;;;;;6079546;23;20751;-81
2022/08/02 02:13:06;;;;;;;3.77;3.47;;;17.90;99.90;;;;;;6072649;23;20356;-81
2022/08/02 02:15:35;;;;;;;4.00;3.60;;;17.90;99.90;;;;;;6073402;23;20434;-80
2022/08/02 02:18:07;;;;;;;3.93;3.63;;;17.90;99.90;;;;;;6073154;23;20584;-81
2022/08/02 02:20:40;;;;;;;3.73;3.43;;;18.00;99.90;;;;;;6071530;23;20456;-81
2022/08/02 02:23:07;;;;;;;4.50;4.07;;;18.00;99.90;;;;;;6046355;23;20408;-81
2022/08/02 02:25:36;;;;;;;4.40;4.07;;;18.10;99.90;;;;;;6072273;23;20823;-80
2022/08/02 02:28:28;;;;;;;8.53;7.63;;;18.10;99.90;;;;;;6072449;23;20388;-81
2022/08/02 02:31:04;;;;;;;7.90;7.20;;;18.20;99.90;;;;;;6047140;23;20682;-82
2022/08/02 02:33:34;;;;;;;12.97;9.67;;;18.20;99.90;;;;;;6072212;23;20359;-83
2022/08/02 02:36:04;;;;;;;13.37;12.10;;;18.10;99.90;;;;;;6072168;23;20403;-82
2022/08/02 02:38:32;;;;;;;14.33;12.93;;;18.20;99.90;;;;;;6072140;23;20759;-84
2022/08/02 02:41:04;;;;;;;19.00;13.60;;;18.20;99.90;;;;;;6047584;23;20463;-83
2022/08/02 02:43:33;;;;;;;24.50;17.47;;;18.10;99.90;;;;;;6072378;23;20432;-81
2022/08/02 02:46:03;;;;;;;15.60;14.00;;;18.10;99.90;;;;;;6072474;23;20439;-82
2022/08/02 02:48:32;;;;;;;17.43;14.07;;;18.10;99.90;;;;;;6071526;23;20474;-82
2022/08/02 02:51:02;;;;;;;15.07;13.47;;;18.10;99.90;;;;;;6072228;23;20451;-83
2022/08/02 02:53:30;;;;;;;17.90;14.03;;;17.90;99.90;;;;;;6072539;23;20426;-80
2022/08/02 02:56:19;;;;;;;13.60;12.30;;;17.80;99.90;;;;;;6072137;23;21074;-82
2022/08/02 02:58:47;;;;;;;13.10;11.80;;;17.60;99.90;;;;;;6071746;23;20455;-81
2022/08/02 03:01:26;;;;;;;14.17;11.37;;;17.50;99.90;;;;;;6071435;23;20417;-81
2022/08/02 03:04:14;;;;;;;12.37;10.63;;;17.40;99.90;;;;;;6050265;23;20790;-80
2022/08/02 03:06:41;;;;;;;11.13;10.03;;;17.40;99.90;;;;;;6070601;23;20512;-79
2022/08/02 03:09:09;;;;;;;10.27;8.97;;;17.40;99.90;;;;;;6071403;23;20402;-82
2022/08/02 03:11:38;;;;;;;8.30;7.43;;;17.30;99.90;;;;;;6072058;23;20411;-81
2022/08/02 03:14:09;;;;;;;9.27;8.40;;;17.40;99.90;;;;;;6073112;23;20403;-82
2022/08/02 03:16:47;;;;;;;12.37;8.47;;;17.40;99.90;;;;;;6071391;23;20527;-82
2022/08/02 03:19:14;;;;;;;9.40;7.83;;;17.50;99.90;;;;;;6070006;23;20380;-83
2022/08/02 03:21:42;;;;;;;10.00;8.60;;;17.50;99.90;;;;;;6069417;23;20469;-83
2022/08/02 03:24:10;;;;;;;10.23;9.03;;;17.50;99.90;;;;;;6070139;23;20473;-81
2022/08/02 03:26:37;;;;;;;11.00;8.37;;;17.40;99.90;;;;;;6069710;23;20384;-82
2022/08/02 03:29:05;;;;;;;9.57;8.30;;;17.30;99.90;;;;;;6044303;23;20472;-82
2022/08/02 03:31:40;;;;;;;10.17;8.77;;;17.20;99.90;;;;;;6070979;23;20377;-82
2022/08/02 03:34:07;;;;;;;10.23;8.87;;;17.20;99.90;;;;;;6045564;23;20416;-82
2022/08/02 03:36:35;;;;;;;8.50;7.80;;;17.20;99.90;;;;;;6073661;23;20619;-80
2022/08/02 03:39:03;;;;;;;10.70;9.60;;;17.20;99.90;;;;;;6074469;23;20379;-81
2022/08/02 03:41:30;;;;;;;10.10;9.13;;;17.20;99.90;;;;;;6071356;23;20745;-81
2022/08/02 03:43:58;;;;;;;10.50;9.40;;;17.10;99.90;;;;;;6071714;23;20567;-82
2022/08/02 03:46:25;;;;;;;11.17;10.10;;;17.10;99.90;;;;;;6072855;23;20392;-82
2022/08/02 03:48:54;;;;;;;11.43;10.10;;;17.10;99.90;;;;;;6072765;23;20443;-81
2022/08/02 03:51:22;;;;;;;9.70;8.87;;;17.10;99.90;;;;;;6072307;23;20408;-82
2022/08/02 03:53:50;;;;;;;12.10;9.57;;;17.00;99.90;;;;;;6072980;23;20792;-82
2022/08/02 03:56:18;;;;;;;11.00;9.67;;;17.00;99.90;;;;;;6073582;23;20419;-82
2022/08/02 03:58:45;;;;;;;10.67;9.77;;;17.00;99.90;;;;;;6072403;23;20963;-82
2022/08/02 04:01:15;;;;;;;9.93;8.80;;;17.20;99.90;;;;;;6071430;23;20375;-80
2022/08/02 04:03:42;;;;;;;11.07;10.07;;;17.20;99.90;;;;;;6069974;23;20949;-80
2022/08/02 04:06:09;;;;;;;12.23;10.67;;;17.30;99.90;;;;;;6069094;23;20487;-81
2022/08/02 04:08:36;;;;;;;15.97;9.53;;;17.40;99.90;;;;;;6071272;23;21193;-81
2022/08/02 04:13:51;;;;;;;10.17;9.27;;;17.50;99.90;;;;;;6075137;23;20649;-81
2022/08/02 04:16:35;;;;;;;10.50;9.60;;;17.50;99.90;;;;;;6076835;23;20435;-82
2022/08/02 04:19:06;;;;;;;11.17;9.40;;;17.60;99.90;;;;;;6049701;23;20389;-81
2022/08/02 04:21:36;;;;;;;9.10;8.20;;;17.80;99.90;;;;;;6071984;23;20380;-81
2022/08/02 04:24:22;;;;;;;10.50;9.50;;;17.80;99.90;;;;;;6073456;23;20348;-81
2022/08/02 04:26:54;;;;;;;9.57;8.10;;;17.90;99.90;;;;;;6073957;23;20364;-81
2022/08/02 04:29:26;;;;;;;8.13;7.13;;;18.20;99.90;;;;;;6074320;23;20425;-80
2022/08/02 04:31:53;;;;;;;6.00;5.40;;;18.60;99.90;;;;;;6046735;23;20468;-81
2022/08/02 04:34:21;;;;;;;6.20;5.60;;;18.70;99.90;;;;;;6074637;23;20387;-82
2022/08/02 04:36:48;;;;;;;7.40;6.73;;;18.90;99.90;;;;;;6075310;23;20772;-81
2022/08/02 04:39:16;;;;;;;9.13;6.07;;;18.90;99.90;;;;;;6076316;23;20455;-82
2022/08/02 04:41:45;;;;;;;8.67;7.00;;;18.90;99.90;;;;;;6076038;23;20417;-81
2022/08/02 04:44:13;;;;;;;6.27;5.67;;;18.90;99.90;;;;;;6076605;23;20377;-81
2022/08/02 04:46:42;;;;;;;6.37;5.60;;;18.90;99.90;;;;;;6051311;23;20372;-81
2022/08/02 04:49:10;;;;;;;7.57;5.67;;;18.90;99.90;;;;;;6074376;23;20433;-81
2022/08/02 04:51:38;;;;;;;8.20;5.53;;;18.90;99.90;;;;;;6074523;23;20731;-81
2022/08/02 04:54:07;;;;;;;5.93;5.40;;;18.90;99.90;;;;;;6072885;23;20985;-81
2022/08/02 04:56:38;;;;;;;7.77;6.87;;;19.00;99.90;;;;;;6073235;23;20433;-81
2022/08/02 04:59:06;;;;;;;5.93;5.33;;;19.10;99.90;;;;;;6048039;23;20827;-81
2022/08/02 05:01:34;;;;;;;6.07;5.47;;;19.20;99.90;;;;;;6069677;23;20411;-81
2022/08/02 05:04:02;;;;;;;5.37;4.87;;;19.40;99.90;;;;;;6072437;23;20790;-81
2022/08/02 05:06:31;;;;;;;6.03;5.50;;;19.50;99.90;;;;;;6073121;23;20690;-81
2022/08/02 05:08:58;;;;;;;6.07;5.47;;;19.60;99.90;;;;;;6047785;23;20552;-81
2022/08/02 05:11:25;;;;;;;7.07;5.30;;;19.80;99.90;;;;;;6072413;23;20401;-81
2022/08/02 05:14:03;;;;;;;6.20;5.60;;;19.90;99.90;;;;;;6073901;23;20363;-81
2022/08/02 05:16:30;;;;;;;5.40;5.00;;;19.90;99.90;;;;;;6071603;23;20464;-81
2022/08/02 05:19:01;;;;;;;6.20;5.70;;;19.80;99.90;;;;;;6071358;23;20487;-81
2022/08/02 05:21:30;;;;;;;12.53;6.73;;;19.90;99.90;;;;;;6071604;23;20386;-81
2022/08/02 05:23:57;;;;;;;5.73;4.97;;;20.00;99.90;;;;;;6071235;23;20467;-81
2022/08/02 05:26:24;;;;;;;5.57;5.07;;;20.00;99.90;;;;;;6070739;23;20384;-83
2022/08/02 05:28:51;;;;;;;7.27;5.57;;;20.20;99.90;;;;;;6046510;23;20435;-80
2022/08/02 05:31:19;;;;;;;6.80;5.13;;;20.30;99.90;;;;;;6069965;23;20807;-80
2022/08/02 05:33:46;;;;;;;6.90;5.67;;;20.30;99.90;;;;;;6070256;23;20408;-80
2022/08/02 05:36:13;;;;;;;6.33;5.83;;;20.40;99.90;;;;;;6071163;23;20412;-82
2022/08/02 05:38:41;;;;;;;5.60;5.17;;;20.50;99.90;;;;;;6070362;23;20378;-80
2022/08/02 05:41:17;;;;;;;5.40;5.00;;;20.60;99.90;;;;;;6045696;23;20368;-80
2022/08/02 05:43:45;;;;;;;7.43;6.70;;;20.60;99.90;;;;;;6044220;23;20544;-83
2022/08/02 05:46:16;;;;;;;6.00;5.40;;;20.70;99.90;;;;;;6070846;23;20574;-82
2022/08/02 05:48:44;;;;;;;7.17;6.57;;;20.80;99.90;;;;;;6044599;23;20469;-82
2022/08/02 05:51:18;;;;;;;5.10;4.70;;;21.00;99.90;;;;;;6070819;23;20403;-81
2022/08/02 05:53:54;;;;;;;6.50;5.07;;;21.20;99.90;;;;;;6071544;23;20768;-80
2022/08/02 05:56:32;;;;;;;6.20;5.60;;;21.30;99.90;;;;;;6071831;23;20465;-81
2022/08/02 05:59:03;;;;;;;6.07;5.53;;;21.30;99.90;;;;;;6070957;23;20397;-81
2022/08/02 06:01:36;;;;;;;5.57;5.13;;;21.30;99.90;;;;;;6072942;23;20387;-83
2022/08/02 06:04:07;;;;;;;5.97;4.93;;;21.20;99.90;;;;;;6071439;23;20943;-80
2022/08/02 06:06:34;;;;;;;6.97;5.60;;;21.40;99.90;;;;;;6077512;23;20389;-78
2022/08/02 06:09:09;;;;;;;5.13;4.63;;;21.60;99.90;;;;;;6084913;23;20485;-79
2022/08/02 06:11:41;;;;;;;4.60;4.20;;;21.70;99.90;;;;;;6085091;23;20396;-79
2022/08/02 06:14:31;;;;;;;4.40;4.00;;;21.80;99.90;;;;;;6080643;23;20436;-81
2022/08/02 06:16:59;;;;;;;5.90;5.40;;;22.10;99.90;;;;;;6069688;23;20654;-80
2022/08/02 06:19:30;;;;;;;5.30;4.90;;;22.30;99.90;;;;;;6069462;23;20363;-81
2022/08/02 06:22:14;;;;;;;5.73;5.27;;;22.30;99.90;;;;;;6069087;23;20389;-80
2022/08/02 06:25:01;;;;;;;6.50;6.00;;;22.60;99.90;;;;;;6072527;23;20404;-80
2022/08/02 06:27:29;;;;;;;4.40;4.00;;;22.80;99.90;;;;;;6074611;23;20414;-79
2022/08/02 06:29:57;;;;;;;7.20;5.87;;;23.40;99.90;;;;;;6068863;23;20433;-78
2022/08/02 06:32:26;;;;;;;8.50;5.90;;;23.30;99.90;;;;;;6066938;23;20452;-81
2022/08/02 06:34:53;;;;;;;6.10;5.40;;;23.70;99.90;;;;;;6068360;23;20426;-79
2022/08/02 06:37:29;;;;;;;6.50;5.90;;;24.20;99.90;;;;;;6067043;23;20448;-79
2022/08/02 06:40:13;;;;;;;4.70;4.30;;;24.80;99.90;;;;;;6070583;23;20378;-83
2022/08/02 06:42:48;;;;;;;4.57;4.17;;;25.60;99.90;;;;;;6069151;23;20579;-82
2022/08/02 06:45:16;;;;;;;4.30;3.50;;;26.10;99.90;;;;;;6069496;23;20452;-81
2022/08/02 06:47:43;;;;;;;5.03;4.70;;;26.40;99.90;;;;;;6069200;23;20411;-81
2022/08/02 06:50:10;;;;;;;7.03;6.37;;;26.80;99.90;;;;;;6071620;23;20383;-81
2022/08/02 06:52:37;;;;;;;5.10;3.90;;;27.20;99.90;;;;;;6070069;23;20400;-81
2022/08/02 06:55:05;;;;;;;4.43;4.03;;;27.50;99.90;;;;;;6069415;23;20483;-84
2022/08/02 06:57:33;;;;;;;4.30;4.00;;;28.10;99.90;;;;;;6069696;23;20451;-81
2022/08/02 07:00:01;;;;;;;7.73;3.83;;;28.70;99.90;;;;;;6071391;23;20437;-82
2022/08/02 07:02:29;;;;;;;4.60;4.20;;;29.30;99.90;;;;;;6071801;23;20493;-81
2022/08/02 07:04:58;;;;;;;4.90;4.40;;;30.60;99.90;;;;;;6070083;23;20394;-83
2022/08/02 07:07:25;;;;;;;5.43;5.03;;;31.50;99.90;;;;;;6071799;23;20626;-81
2022/08/02 07:09:52;;;;;;;4.57;4.17;;;32.10;99.90;;;;;;6050444;23;20580;-82
2022/08/02 07:12:30;;;;;;;6.07;4.30;;;32.50;99.90;;;;;;6085430;23;20429;-82
2022/08/02 07:14:58;;;;;;;4.43;4.03;;;32.80;99.90;;;;;;6091031;23;20490;-84
2022/08/02 07:17:26;;;;;;;3.77;3.47;;;33.50;98.50;;;;;;6090268;23;20515;-82
2022/08/02 07:19:53;;;;;;;3.53;3.33;;;33.20;99.00;;;;;;6039924;23;20451;-81
2022/08/02 07:22:23;;;;;;;5.80;5.27;;;32.50;99.30;;;;;;6082720;23;20414;-80
2022/08/02 07:24:54;;;;;;;4.40;4.00;;;31.00;99.90;;;;;;6071482;23;20557;-81
2022/08/02 07:27:21;;;;;;;3.60;3.30;;;30.80;99.90;;;;;;6069586;23;20433;-81
2022/08/02 07:29:48;;;;;;;3.67;3.43;;;30.90;99.90;;;;;;6070063;23;20479;-81
2022/08/02 07:32:17;;;;;;;4.10;3.47;;;30.40;99.90;;;;;;6070094;23;20403;-81
2022/08/02 07:34:45;;;;;;;18.13;3.87;;;30.30;99.90;;;;;;6067504;23;20426;-80
2022/08/02 07:37:23;;;;;;;2.77;2.47;;;29.50;99.90;;;;;;6067772;23;20516;-81
2022/08/02 07:40:12;;;;;;;3.33;3.03;;;29.80;99.90;;;;;;6067269;23;20453;-83
2022/08/02 07:42:46;;;;;;;3.57;2.53;;;31.10;99.90;;;;;;6067160;23;20417;-82
2022/08/02 07:45:13;;;;;;;3.07;2.87;;;32.10;99.10;;;;;;6069483;23;20394;-80
2022/08/02 07:47:42;;;;;;;4.00;2.70;;;31.80;98.20;;;;;;6069051;23;20564;-81
2022/08/02 07:50:12;;;;;;;2.17;2.07;;;31.00;99.50;;;;;;6069151;23;20474;-81
2022/08/02 07:52:40;;;;;;;2.57;2.37;;;31.60;98.10;;;;;;6069206;23;20435;-81
2022/08/02 07:55:08;;;;;;;2.80;2.60;;;31.40;97.80;;;;;;6068325;23;20478;-80
2022/08/02 07:57:36;;;;;;;2.50;2.30;;;30.10;99.90;;;;;;6042346;23;20514;-82
2022/08/02 08:00:08;;;;;;;2.30;2.20;;;29.50;99.90;;;;;;6069351;23;20406;-81
2022/08/02 08:02:35;;;;;;;4.13;3.00;;;29.70;99.90;;;;;;6068708;23;20489;-82
2022/08/02 08:05:03;;;;;;;2.30;2.10;;;31.30;99.30;;;;;;6070507;23;20402;-81
2022/08/02 08:07:30;;;;;;;1.93;1.80;;;32.20;96.00;;;;;;6068801;23;20478;-81
2022/08/02 08:09:57;;;;;;;2.83;2.63;;;32.70;94.60;;;;;;6068553;23;20467;-82
2022/08/02 08:12:25;;;;;;;2.50;2.30;;;33.70;92.20;;;;;;6069083;23;20431;-81
2022/08/02 08:14:51;;;;;;;2.33;2.23;;;33.90;90.80;;;;;;6069854;23;20449;-83
2022/08/02 08:17:19;;;;;;;2.57;2.37;;;34.70;87.10;;;;;;6070585;23;20445;-82
2022/08/02 08:19:46;;;;;;;3.47;2.07;;;35.00;86.30;;;;;;6072033;23;20433;-83
2022/08/02 08:22:19;;;;;;;2.30;2.20;;;34.70;82.70;;;;;;6073074;23;20430;-81
2022/08/02 08:24:47;;;;;;;3.07;2.27;;;33.90;85.00;;;;;;6072006;23;20437;-83
2022/08/02 08:27:16;;;;;;;6.27;2.20;;;31.90;91.00;;;;;;6072649;23;20666;-82
2022/08/02 08:29:44;;;;;;;2.63;2.30;;;31.40;92.10;;;;;;6050340;23;20933;-81
2022/08/02 08:32:12;;;;;;;2.27;2.07;;;33.90;88.80;;;;;;6052438;23;20468;-80
2022/08/02 08:34:45;;;;;;;2.83;2.63;;;34.90;86.00;;;;;;6078951;23;20394;-81
2022/08/02 08:37:12;;;;;;;2.37;2.17;;;34.30;85.40;;;;;;6081107;23;20492;-81
2022/08/02 08:39:48;;;;;;;2.43;1.73;;;35.30;82.50;;;;;;6082917;23;20416;-81
2022/08/02 08:42:25;;;;;;;2.23;2.13;;;35.50;78.90;;;;;;6046208;23;20671;-81
2022/08/02 08:44:53;;;;;;;2.07;1.97;;;34.00;82.10;;;;;;6071103;23;20413;-81
2022/08/02 08:47:22;;;;;;;2.20;2.00;;;34.00;82.00;;;;;;6070947;23;20791;-81
2022/08/02 08:49:53;;;;;;;2.27;2.10;;;34.20;82.60;;;;;;6070150;23;20517;-83
2022/08/02 08:52:24;;;;;;;3.00;2.30;;;34.80;79.50;;;;;;6045129;23;20455;-80
2022/08/02 08:54:53;;;;;;;2.40;1.90;;;34.40;82.20;;;;;;6071253;23;20465;-81
2022/08/02 08:57:20;;;;;;;2.40;2.03;;;36.10;78.40;;;;;;6070575;23;20449;-81
2022/08/02 08:59:49;;;;;;;1.90;1.80;;;37.10;73.10;;;;;;6071441;23;20985;-80
2022/08/02 09:02:16;;;;;;;2.10;1.90;;;36.40;71.40;;;;;;6046230;23;20420;-82
2022/08/02 09:04:49;;;;;;;1.67;1.57;;;35.30;73.60;;;;;;6073955;23;20402;-84
2022/08/02 09:07:21;;;;;;;1.43;1.33;;;34.50;73.00;;;;;;6073089;23;20577;-81
2022/08/02 09:09:48;;;;;;;1.67;1.50;;;34.30;75.20;;;;;;6071855;23;20444;-84
2022/08/02 09:12:16;;;;;;;3.90;1.40;;;35.20;72.40;;;;;;6047538;23;20409;-84
2022/08/02 09:14:45;;;;;;;1.57;1.47;;;35.30;70.10;;;;;;6068475;23;20664;-81
2022/08/02 09:17:17;;;;;;;1.70;1.60;;;34.60;72.20;;;;;;6069536;23;20680;-85
2022/08/02 09:20:06;;;;;;;2.50;1.63;;;34.20;73.00;;;;;;6044732;23;20387;-81
2022/08/02 09:22:33;;;;;;;1.50;1.40;;;34.50;73.00;;;;;;6044158;23;20712;-83
2022/08/02 09:25:00;;;;;;;2.40;1.40;;;35.00;71.00;;;;;;6070280;23;20389;-83
2022/08/02 09:27:35;;;;;;;1.17;1.13;;;34.40;71.20;;;;;;6070670;23;20446;-81
2022/08/02 09:30:03;;;;;;;1.40;1.30;;;34.20;70.50;;;;;;6071267;23;20715;-84
2022/08/02 09:32:45;;;;;;;1.73;1.57;;;34.00;70.90;;;;;;6072137;23;20598;-87
2022/08/02 09:35:14;;;;;;;2.10;1.90;;;32.40;74.40;;;;;;6046863;23;20905;-84
2022/08/02 09:37:41;;;;;;;1.37;1.27;;;32.40;75.70;;;;;;6071003;23;20438;-82
2022/08/02 09:40:14;;;;;;;1.27;1.17;;;31.10;77.80;;;;;;6048630;23;20413;-84
2022/08/02 09:42:58;;;;;;;1.77;1.67;;;29.40;84.60;;;;;;6070719;23;21032;-85
2022/08/02 09:45:35;;;;;;;1.63;1.53;;;28.30;90.30;;;;;;6074016;23;20504;-82
2022/08/02 09:48:11;;;;;;;3.63;1.90;;;27.80;91.00;;;;;;6082605;23;20458;-82
2022/08/02 09:50:40;;;;;;;2.10;1.93;;;27.60;92.50;;;;;;6081492;23;20402;-81
2022/08/02 09:53:12;;;;;;;1.83;1.57;;;27.90;93.30;;;;;;6081457;23;20437;-82
2022/08/02 09:55:40;;;;;;;1.60;1.50;;;27.90;93.80;;;;;;6056125;23;20465;-81
2022/08/02 09:58:20;;;;;;;1.50;1.40;;;27.50;95.10;;;;;;6081534;23;20620;-81
2022/08/02 10:01:00;;;;;;;1.40;1.27;;;27.10;95.70;;;;;;6074161;23;20455;-84
2022/08/02 10:03:27;;;;;;;1.60;1.50;;;27.30;96.30;;;;;;6074381;23;20398;-83
2022/08/02 10:06:01;;;;;;;1.47;1.37;;;27.60;95.40;;;;;;6045361;23;20397;-80
2022/08/02 10:08:30;;;;;;;2.17;1.70;;;28.10;95.00;;;;;;6070923;23;20442;-83
2022/08/02 10:11:00;;;;;;;1.87;1.60;;;28.20;93.70;;;;;;6045511;23;20430;-81
2022/08/02 10:13:29;;;;;;;1.70;1.60;;;27.70;94.90;;;;;;6071578;23;20412;-82
2022/08/02 10:15:56;;;;;;;2.63;1.50;;;26.90;95.40;;;;;;6079953;23;20471;-80
2022/08/02 10:18:23;;;;;;;2.40;1.63;;;26.70;98.40;;;;;;6078364;23;20469;-83
2022/08/02 10:21:12;;;;;;;2.07;1.90;;;26.70;96.90;;;;;;6071450;23;20391;-80
2022/08/02 10:23:42;;;;;;;1.80;1.70;;;26.70;95.60;;;;;;6071867;23;20445;-79
2022/08/02 10:26:13;;;;;;;2.20;1.67;;;27.00;95.80;;;;;;6073011;23;20422;-81
2022/08/02 10:28:41;;;;;;;1.90;1.80;;;27.10;95.40;;;;;;6071243;23;20639;-84
2022/08/02 10:31:09;;;;;;;1.83;1.50;;;27.60;96.40;;;;;;6070996;23;20481;-80
2022/08/02 10:33:37;;;;;;;1.53;1.43;;;28.30;95.20;;;;;;6072014;23;20405;-80
2022/08/02 10:36:07;;;;;;;1.43;1.33;;;28.40;94.20;;;;;;6080244;23;20433;-84
2022/08/02 10:38:35;;;;;;;1.50;1.40;;;27.90;93.70;;;;;;6078420;23;20407;-82
2022/08/02 10:41:02;;;;;;;2.20;1.80;;;27.40;95.20;;;;;;6074477;23;20524;-82
2022/08/02 10:43:35;;;;;;;1.90;1.80;;;27.20;94.70;;;;;;6072634;23;20424;-83
2022/08/02 10:46:21;;;;;;;1.80;1.20;;;27.20;95.30;;;;;;6073441;23;20432;-82
2022/08/02 10:49:08;;;;;;;1.93;1.80;;;26.90;95.30;;;;;;6070274;23;20394;-80
2022/08/02 10:51:59;;;;;;;1.73;1.60;;;26.90;96.30;;;;;;6072573;23;20414;-83
2022/08/02 10:54:30;;;;;;;2.13;1.63;;;27.00;96.00;;;;;;6071063;23;20575;-81
2022/08/02 10:56:59;;;;;;;2.53;2.10;;;27.10;96.60;;;;;;6070710;23;20406;-82
2022/08/02 10:59:32;;;;;;;1.80;1.70;;;27.30;96.10;;;;;;6070181;23;20475;-83
2022/08/02 11:02:05;;;;;;;1.50;1.40;;;27.50;96.20;;;;;;6071488;23;20475;-82
2022/08/02 11:04:41;;;;;;;2.17;1.97;;;27.10;95.10;;;;;;6071246;23;20458;-83
2022/08/02 11:07:13;;;;;;;1.93;1.63;;;27.00;96.50;;;;;;6070184;23;20422;-81
2022/08/02 11:09:41;;;;;;;2.00;1.90;;;27.40;95.70;;;;;;6068557;23;20387;-83
2022/08/02 11:12:12;;;;;;;2.17;2.07;;;27.50;96.00;;;;;;6068954;23;20772;-81
2022/08/02 11:14:45;;;;;;;3.60;1.70;;;27.40;95.60;;;;;;6070942;23;20392;-83
2022/08/02 11:17:16;;;;;;;7.70;6.47;;;27.20;95.10;;;;;;6078934;23;20451;-88
2022/08/02 11:20:11;;;;;;;2.90;2.07;;;27.00;95.30;;;;;;6069868;23;20387;-82
2022/08/02 11:22:39;;;;;;;1.97;1.83;;;27.10;95.90;;;;;;6043189;23;20468;-80
2022/08/02 11:25:21;;;;;;;2.13;2.03;;;27.40;96.50;;;;;;6070159;23;20410;-85
2022/08/02 11:27:52;;;;;;;2.13;1.70;;;27.70;94.90;;;;;;6069098;23;20588;-81
2022/08/02 11:30:19;;;;;;;1.77;1.67;;;27.40;95.30;;;;;;6068847;23;20432;-84
2022/08/02 11:32:59;;;;;;;1.90;1.80;;;27.20;95.10;;;;;;6068760;23;20400;-81
2022/08/02 11:35:37;;;;;;;1.63;1.53;;;26.90;94.60;;;;;;6069303;23;20474;-80
2022/08/02 11:38:19;;;;;;;1.80;1.70;;;27.00;95.40;;;;;;6068488;23;20464;-83
2022/08/02 11:40:47;;;;;;;2.60;2.40;;;27.10;95.50;;;;;;6043899;23;20806;-80
2022/08/02 11:43:16;;;;;;;2.80;1.43;;;27.00;94.80;;;;;;6070229;23;20788;-85
2022/08/02 11:45:43;;;;;;;2.60;1.80;;;26.90;95.80;;;;;;6069075;23;20439;-83
2022/08/02 11:48:10;;;;;;;2.00;1.90;;;26.80;95.60;;;;;;6072382;23;20478;-80
2022/08/02 11:50:40;;;;;;;1.90;1.70;;;26.80;97.60;;;;;;6069905;23;20478;-87
2022/08/02 11:53:16;;;;;;;17.03;3.13;;;26.60;97.00;;;;;;6071668;23;20394;-88
2022/08/02 11:55:43;;;;;;;1.77;1.67;;;26.80;96.80;;;;;;6071310;23;20487;-81
2022/08/02 11:58:11;;;;;;;2.17;2.07;;;26.90;95.70;;;;;;6072615;23;20465;-84
2022/08/02 12:00:45;;;;;;;2.00;1.80;;;27.10;96.20;;;;;;6072702;23;20438;-82
2022/08/02 12:03:13;;;;;;;1.40;1.30;;;27.00;95.80;;;;;;6071576;23;20384;-81
2022/08/02 12:05:48;;;;;;;1.60;1.50;;;27.10;94.90;;;;;;6081602;23;20426;-81
2022/08/02 12:08:35;;;;;;;5.00;2.10;;;26.90;96.30;;;;;;6082563;23;20415;-80
2022/08/02 12:11:02;;;;;;;2.10;1.83;;;26.60;97.60;;;;;;6077901;23;20391;-83
2022/08/02 12:13:43;;;;;;;3.10;2.80;;;26.70;97.90;;;;;;6071975;23;20466;-86
2022/08/02 12:19:18;;;;;;;2.47;2.27;;;26.30;97.80;;;;;;6072367;23;20361;-80
2022/08/02 12:21:46;;;;;;;2.43;1.90;;;26.30;97.40;;;;;;6048447;23;20450;-79
2022/08/02 12:24:13;;;;;;;3.07;1.67;;;26.60;98.50;;;;;;6075226;23;20426;-79
2022/08/02 12:26:45;;;;;;;3.10;2.03;;;27.00;96.20;;;;;;6056406;23;20574;-80
2022/08/02 12:29:12;;;;;;;1.53;1.43;;;27.20;95.60;;;;;;6087664;23;20484;-82
2022/08/02 12:32:01;;;;;;;2.00;1.90;;;27.40;94.20;;;;;;6084659;23;20431;-82
2022/08/02 12:34:29;;;;;;;1.80;1.70;;;27.60;94.60;;;;;;6086079;23;20409;-80
2022/08/02 12:37:01;;;;;;;1.60;1.50;;;28.00;94.00;;;;;;6079742;23;20895;-83
2022/08/02 12:39:33;;;;;;;2.30;2.10;;;28.50;94.30;;;;;;6074174;23;20349;-81
2022/08/02 12:42:00;;;;;;;6.37;4.70;;;28.90;93.00;;;;;;6077198;23;20470;-81
2022/08/02 12:44:27;;;;;;;1.60;1.50;;;29.20;91.50;;;;;;6078784;23;20422;-83
2022/08/02 12:47:04;;;;;;;2.90;1.67;;;28.90;90.40;;;;;;6076760;23;20417;-85
2022/08/02 12:49:31;;;;;;;3.50;2.27;;;29.00;91.50;;;;;;6075114;23;20382;-82
2022/08/02 12:51:59;;;;;;;1.80;1.70;;;28.70;91.20;;;;;;6070988;23;20447;-80
2022/08/02 12:54:39;;;;;;;1.47;1.37;;;28.70;90.50;;;;;;6069805;23;20449;-81
2022/08/02 12:57:14;;;;;;;2.27;2.10;;;28.70;90.60;;;;;;6070418;23;20520;-85
2022/08/02 12:59:43;;;;;;;1.70;1.60;;;28.30;91.40;;;;;;6071202;23;20416;-80
2022/08/02 13:02:11;;;;;;;7.30;2.20;;;28.00;92.50;;;;;;6071478;23;20462;-82
2022/08/02 13:04:40;;;;;;;1.50;1.40;;;28.00;93.30;;;;;;6070367;23;20406;-82
2022/08/02 13:07:16;;;;;;;1.60;1.50;;;27.80;93.40;;;;;;6069240;23;20620;-82
2022/08/02 13:09:47;;;;;;;1.63;1.53;;;27.70;93.00;;;;;;6069212;23;20513;-83
2022/08/02 13:12:14;;;;;;;1.77;1.67;;;27.70;93.20;;;;;;6069187;23;20493;-80